createdAt,value
2023-07-02T00:00:56.245Z,65.32
2023-07-02T00:05:59.763Z,65.47
2023-07-02T00:11:04.648Z,65.23
2023-07-02T00:16:08.153Z,65.40
2023-07-02T00:21:14.479Z,65.55
2023-07-02T00:26:19.415Z,65.53
2023-07-02T00:31:23.274Z,65.51
2023-07-02T00:36:26.859Z,65.58
2023-07-02T00:41:31.712Z,65.32
2023-07-02T00:46:35.245Z,65.55
2023-07-02T00:51:39.066Z,65.51
2023-07-02T00:56:43.932Z,65.35
2023-07-02T01:01:51.147Z,65.70
2023-07-02T01:06:58.506Z,65.55
2023-07-02T01:12:06.313Z,65.73
2023-07-02T01:17:10.856Z,66.01
2023-07-02T01:22:15.974Z,65.73
2023-07-02T01:27:20.475Z,65.61
2023-07-02T01:32:24.174Z,66.08
2023-07-02T01:37:29.196Z,65.67
2023-07-02T01:42:32.635Z,65.91
2023-07-02T01:47:36.139Z,66.12
2023-07-02T01:52:41.046Z,65.95
2023-07-02T01:57:44.502Z,65.72
2023-07-02T02:02:48.040Z,65.92
2023-07-02T02:07:52.951Z,65.54
2023-07-02T02:12:56.421Z,65.81
2023-07-02T02:17:59.948Z,65.80
2023-07-02T02:23:04.904Z,65.78
2023-07-02T02:28:08.375Z,65.91
2023-07-02T02:33:11.799Z,65.21
2023-07-02T02:38:16.893Z,65.33
2023-07-02T02:43:22.005Z,65.06
2023-07-02T02:48:25.524Z,65.05
2023-07-02T02:53:30.413Z,64.13
2023-07-02T02:58:33.861Z,64.46
2023-07-02T03:03:40.343Z,63.90
2023-07-02T03:08:45.267Z,63.77
2023-07-02T03:13:48.826Z,64.12
2023-07-02T03:18:52.297Z,63.54
2023-07-02T03:23:57.240Z,63.38
2023-07-02T03:29:00.699Z,62.86
2023-07-02T03:34:06.315Z,63.02
2023-07-02T03:39:11.366Z,62.83
2023-07-02T03:44:14.965Z,61.87
2023-07-02T03:49:18.600Z,61.50
2023-07-02T03:54:23.468Z,61.45
2023-07-02T03:59:26.888Z,61.57
2023-07-02T04:04:30.566Z,61.35
2023-07-02T04:09:35.718Z,60.72
2023-07-02T04:14:39.203Z,60.10
2023-07-02T04:19:42.675Z,60.13
2023-07-02T04:24:50.943Z,59.71
2023-07-02T04:29:57.736Z,59.21
2023-07-02T04:35:01.171Z,58.05
2023-07-02T04:40:08.506Z,58.02
2023-07-02T04:45:16.048Z,58.27
2023-07-02T04:50:21.420Z,57.52
2023-07-02T04:55:26.254Z,58.12
2023-07-02T05:00:29.688Z,57.51
2023-07-02T05:05:33.270Z,58.16
2023-07-02T05:10:38.092Z,58.34
2023-07-02T05:15:42.317Z,58.15
2023-07-02T05:20:47.751Z,58.39
2023-07-02T05:25:52.940Z,58.39
2023-07-02T05:30:56.402Z,58.17
2023-07-02T05:35:59.826Z,58.34
2023-07-02T05:41:05.121Z,58.34
2023-07-02T05:46:08.573Z,58.36
2023-07-02T05:51:12.030Z,58.65
2023-07-02T05:56:16.917Z,58.41
2023-07-02T06:01:20.639Z,58.56
2023-07-02T06:06:25.587Z,58.84
2023-07-02T06:11:30.708Z,57.97
2023-07-02T06:16:34.602Z,57.93
2023-07-02T06:21:38.812Z,58.04
2023-07-02T06:26:43.672Z,58.10
2023-07-02T06:31:47.097Z,57.68
2023-07-02T06:36:50.792Z,57.45
2023-07-02T06:41:55.661Z,57.64
2023-07-02T06:46:59.330Z,57.65
2023-07-02T06:52:02.835Z,57.03
2023-07-02T06:57:07.984Z,57.04
2023-07-02T07:02:11.630Z,56.79
2023-07-02T07:07:15.617Z,56.80
2023-07-02T07:12:20.458Z,53.73
2023-07-02T07:17:24.031Z,52.96
2023-07-02T07:22:27.566Z,52.41
2023-07-02T07:27:32.413Z,52.47
2023-07-02T07:32:35.862Z,51.46
2023-07-02T07:37:39.300Z,51.95
2023-07-02T07:42:44.811Z,51.76
2023-07-02T07:47:48.340Z,51.30
2023-07-02T07:52:52.458Z,51.85
2023-07-02T07:57:57.304Z,52.01
2023-07-02T08:03:02.067Z,52.05
2023-07-02T08:08:05.916Z,51.73
2023-07-02T08:13:11.888Z,51.79
2023-07-02T08:18:16.100Z,50.86
2023-07-02T08:23:19.524Z,51.15
2023-07-02T08:28:24.390Z,50.74
2023-07-02T08:33:27.846Z,50.51
2023-07-02T08:38:31.288Z,50.79
2023-07-02T08:43:36.836Z,51.08
2023-07-02T08:48:40.348Z,50.93
2023-07-02T08:53:43.826Z,50.94
2023-07-02T08:58:48.670Z,50.36
2023-07-02T09:03:52.296Z,50.18
2023-07-02T09:08:55.731Z,51.08
2023-07-02T09:14:01.703Z,51.24
2023-07-02T09:19:09.064Z,50.90
2023-07-02T09:24:17.153Z,51.50
2023-07-02T09:29:24.569Z,52.38
2023-07-02T09:34:32.346Z,52.37
2023-07-02T09:39:37.060Z,52.70
2023-07-02T09:44:44.250Z,53.40
2023-07-02T09:49:52.039Z,53.31
2023-07-02T09:54:55.625Z,53.25
2023-07-02T10:00:01.442Z,53.85
2023-07-02T10:05:06.112Z,53.90
2023-07-02T10:10:10.407Z,53.82
2023-07-02T10:15:27.212Z,54.57
2023-07-02T10:20:38.541Z,54.42
2023-07-02T10:25:42.068Z,54.94
2023-07-02T10:30:47.047Z,54.47
2023-07-02T10:35:51.826Z,54.14
2023-07-02T10:40:59.329Z,54.36
2023-07-02T10:46:04.457Z,54.86
2023-07-02T10:51:14.402Z,54.52
2023-07-02T10:56:20.971Z,54.63
2023-07-02T11:01:27.212Z,54.58
2023-07-02T11:06:33.588Z,55.11
2023-07-02T11:11:37.042Z,55.55
2023-07-02T11:16:42.331Z,55.19
2023-07-02T11:21:54.109Z,55.99
2023-07-02T11:26:58.031Z,55.54
2023-07-02T11:32:10.530Z,55.42
2023-07-02T11:37:14.142Z,56.13
2023-07-02T11:42:17.647Z,55.66
2023-07-02T11:47:22.630Z,55.60
2023-07-02T11:52:26.097Z,55.68
2023-07-02T11:57:29.620Z,56.07
2023-07-02T12:02:34.753Z,56.36
2023-07-02T12:07:38.270Z,56.22
2023-07-02T12:12:41.736Z,56.54
2023-07-02T12:17:46.611Z,57.09
2023-07-02T12:22:50.072Z,57.50
2023-07-02T12:27:53.592Z,57.51
2023-07-02T12:32:58.501Z,57.22
2023-07-02T12:38:04.936Z,57.35
2023-07-02T12:43:08.552Z,57.17
2023-07-02T12:48:13.436Z,57.47
2023-07-02T12:53:16.934Z,57.55
2023-07-02T12:58:20.473Z,57.52
2023-07-02T13:03:26.501Z,58.05
2023-07-02T13:08:30.567Z,57.70
2023-07-02T13:13:33.988Z,58.45
2023-07-02T13:18:38.824Z,57.92
2023-07-02T13:23:42.844Z,58.69
2023-07-02T13:28:48.555Z,58.29
2023-07-02T13:33:53.585Z,58.79
2023-07-02T13:38:57.091Z,58.71
2023-07-02T13:44:02.725Z,59.03
2023-07-02T13:49:07.606Z,59.71
2023-07-02T13:54:15.744Z,59.50
2023-07-02T13:59:21.514Z,58.75
2023-07-02T14:04:25.040Z,59.07
2023-07-02T14:09:28.501Z,59.00
2023-07-02T14:14:33.645Z,58.88
2023-07-02T14:19:37.246Z,58.89
2023-07-02T14:24:40.709Z,58.89
2023-07-02T14:29:45.720Z,58.76
2023-07-02T14:34:49.270Z,59.24
2023-07-02T14:40:06.085Z,59.46
2023-07-02T14:45:17.781Z,59.66
2023-07-02T14:50:21.227Z,59.86
2023-07-02T14:55:24.646Z,59.42
2023-07-02T15:00:29.502Z,59.64
2023-07-02T15:05:33.058Z,59.49
2023-07-02T15:10:39.016Z,59.44
2023-07-02T15:15:45.301Z,59.71
2023-07-02T15:20:49.242Z,60.03
2023-07-02T15:25:53.706Z,59.87
2023-07-02T15:31:02.309Z,60.40
2023-07-02T15:36:06.833Z,60.20
2023-07-02T15:41:12.679Z,61.01
2023-07-02T15:46:19.210Z,61.44
2023-07-02T15:51:24.649Z,60.67
2023-07-02T15:56:28.443Z,61.23
2023-07-02T16:01:35.643Z,60.92
2023-07-02T16:06:39.342Z,61.42
2023-07-02T16:11:43.893Z,61.33
2023-07-02T16:16:55.321Z,61.59
2023-07-02T16:21:59.153Z,61.78
2023-07-02T16:27:03.594Z,61.94
2023-07-02T16:32:11.493Z,62.81
2023-07-02T16:37:15.015Z,63.48
2023-07-02T16:42:18.638Z,62.81
2023-07-02T16:47:23.633Z,62.57
2023-07-02T16:57:48.590Z,62.70
2023-07-02T17:02:53.585Z,63.08
2023-07-02T17:07:57.088Z,62.81
2023-07-02T17:13:00.529Z,62.85
2023-07-02T17:18:05.653Z,63.55
2023-07-02T17:23:09.109Z,63.41
2023-07-02T17:28:12.626Z,62.83
2023-07-02T17:33:18.135Z,62.50
2023-07-02T17:38:22.285Z,62.90
2023-07-02T17:43:25.873Z,63.20
2023-07-02T17:48:31.282Z,62.69
2023-07-02T17:53:34.788Z,62.60
2023-07-02T17:58:38.420Z,63.04
2023-07-02T18:09:05.814Z,63.16
2023-07-02T18:14:09.478Z,62.87
2023-07-02T18:19:14.440Z,63.33
2023-07-02T18:29:40.486Z,62.72
2023-07-02T18:34:47.369Z,62.86
2023-07-02T18:39:50.808Z,62.80
2023-07-02T18:44:55.086Z,63.59
2023-07-02T18:49:59.984Z,62.88
2023-07-02T18:55:03.604Z,62.99
2023-07-02T19:00:10.266Z,62.96
2023-07-02T19:05:15.318Z,63.02
2023-07-02T19:15:39.631Z,62.85
2023-07-02T19:20:44.597Z,62.46
2023-07-02T19:36:32.390Z,61.97
2023-07-02T19:41:35.930Z,62.25
2023-07-02T19:46:39.552Z,62.27
2023-07-02T19:57:14.424Z,62.44
2023-07-02T20:02:20.259Z,62.83
2023-07-02T20:07:25.634Z,62.34
2023-07-02T20:12:30.204Z,62.35
2023-07-02T20:17:35.221Z,63.33
2023-07-02T20:22:42.229Z,63.01
2023-07-02T20:27:45.668Z,62.55
2023-07-02T20:32:49.305Z,62.22
2023-07-02T20:37:56.705Z,61.90
2023-07-02T20:53:42.975Z,61.23
2023-07-02T20:58:46.452Z,60.71
2023-07-02T21:03:50.015Z,60.43
2023-07-02T21:08:55.004Z,60.50
2023-07-02T21:13:58.728Z,60.88
2023-07-02T21:19:02.352Z,60.63
2023-07-02T21:24:07.947Z,60.49
2023-07-02T21:29:11.672Z,60.53
2023-07-02T21:34:15.108Z,60.16
2023-07-02T21:39:19.988Z,59.97
2023-07-02T21:44:23.447Z,60.26
2023-07-02T21:49:27.007Z,60.19
2023-07-02T21:54:31.944Z,60.02
2023-07-02T21:59:35.405Z,60.41
2023-07-02T22:04:38.930Z,59.76
2023-07-02T22:09:44.082Z,60.54
2023-07-02T22:14:47.493Z,60.66
2023-07-02T22:19:50.962Z,60.05
2023-07-02T22:24:55.832Z,60.17
2023-07-02T22:29:59.257Z,59.48
2023-07-02T22:35:02.997Z,59.80
2023-07-02T22:40:10.215Z,60.16
2023-07-02T22:45:23.323Z,59.40
2023-07-02T22:50:27.764Z,59.53
2023-07-02T22:55:32.809Z,59.59
2023-07-02T23:00:36.398Z,59.98
2023-07-02T23:05:39.875Z,59.80
2023-07-02T23:10:44.954Z,59.98
2023-07-02T23:15:48.558Z,59.58
2023-07-02T23:20:55.743Z,59.55
2023-07-02T23:26:00.575Z,59.90
2023-07-02T23:31:06.056Z,59.66
2023-07-02T23:36:28.468Z,59.69
2023-07-02T23:41:33.378Z,59.52
2023-07-02T23:46:37.221Z,59.46
2023-07-02T23:51:40.700Z,59.47
2023-07-02T23:56:45.712Z,59.27
